sensor_id;sensor_type;location;lat;lon;timestamp;P1;durP1;ratioP1;P2;durP2;ratioP2
21771;SDS011;11047;47.904;8.110;2022-09-12T00:00:13;7.15;;;2.45;;
21771;SDS011;11047;47.904;8.110;2022-09-12T00:02:41;6.25;;;2.10;;
21771;SDS011;11047;47.904;8.110;2022-09-12T00:05:07;5.78;;;2.22;;
21771;SDS011;11047;47.904;8.110;2022-09-12T00:07:34;6.07;;;2.40;;
21771;SDS011;11047;47.904;8.110;2022-09-12T00:10:01;4.50;;;2.42;;
21771;SDS011;11047;47.904;8.110;2022-09-12T00:12:29;2.60;;;2.20;;
21771;SDS011;11047;47.904;8.110;2022-09-12T00:14:55;8.38;;;2.83;;
21771;SDS011;11047;47.904;8.110;2022-09-12T00:17:24;3.83;;;2.50;;
21771;SDS011;11047;47.904;8.110;2022-09-12T00:19:51;19.80;;;2.53;;
21771;SDS011;11047;47.904;8.110;2022-09-12T00:22:17;3.45;;;2.28;;
21771;SDS011;11047;47.904;8.110;2022-09-12T00:24:44;14.68;;;2.30;;
21771;SDS011;11047;47.904;8.110;2022-09-12T00:27:11;83.85;;;3.50;;
21771;SDS011;11047;47.904;8.110;2022-09-12T00:29:38;136.48;;;4.53;;
21771;SDS011;11047;47.904;8.110;2022-09-12T00:32:05;147.15;;;4.90;;
21771;SDS011;11047;47.904;8.110;2022-09-12T00:34:33;11.15;;;2.58;;
21771;SDS011;11047;47.904;8.110;2022-09-12T00:37:01;7.25;;;2.38;;
21771;SDS011;11047;47.904;8.110;2022-09-12T00:39:28;16.50;;;2.10;;
21771;SDS011;11047;47.904;8.110;2022-09-12T00:41:55;19.92;;;2.38;;
21771;SDS011;11047;47.904;8.110;2022-09-12T00:47:21;21.52;;;2.20;;
21771;SDS011;11047;47.904;8.110;2022-09-12T00:49:52;29.52;;;2.50;;
21771;SDS011;11047;47.904;8.110;2022-09-12T00:52:25;39.45;;;2.65;;
21771;SDS011;11047;47.904;8.110;2022-09-12T00:57:28;15.88;;;2.15;;
21771;SDS011;11047;47.904;8.110;2022-09-12T00:59:58;21.33;;;2.40;;
21771;SDS011;11047;47.904;8.110;2022-09-12T01:02:29;9.18;;;1.60;;
21771;SDS011;11047;47.904;8.110;2022-09-12T01:04:57;3.33;;;1.45;;
21771;SDS011;11047;47.904;8.110;2022-09-12T01:07:25;57.90;;;2.70;;
21771;SDS011;11047;47.904;8.110;2022-09-12T01:09:53;38.50;;;2.63;;
21771;SDS011;11047;47.904;8.110;2022-09-12T01:12:20;53.17;;;2.95;;
21771;SDS011;11047;47.904;8.110;2022-09-12T01:14:47;79.47;;;3.05;;
21771;SDS011;11047;47.904;8.110;2022-09-12T01:17:14;50.50;;;2.63;;
21771;SDS011;11047;47.904;8.110;2022-09-12T01:19:48;62.15;;;2.80;;
21771;SDS011;11047;47.904;8.110;2022-09-12T01:22:37;17.23;;;1.90;;
21771;SDS011;11047;47.904;8.110;2022-09-12T01:25:23;54.63;;;2.80;;
21771;SDS011;11047;47.904;8.110;2022-09-12T01:28:07;22.70;;;2.15;;
21771;SDS011;11047;47.904;8.110;2022-09-12T01:30:52;21.20;;;2.38;;
21771;SDS011;11047;47.904;8.110;2022-09-12T01:33:33;60.22;;;2.53;;
21771;SDS011;11047;47.904;8.110;2022-09-12T01:36:16;17.50;;;2.00;;
21771;SDS011;11047;47.904;8.110;2022-09-12T01:38:58;22.63;;;1.75;;
21771;SDS011;11047;47.904;8.110;2022-09-12T01:41:27;34.30;;;2.10;;
21771;SDS011;11047;47.904;8.110;2022-09-12T01:44:01;7.10;;;1.47;;
21771;SDS011;11047;47.904;8.110;2022-09-12T01:46:38;28.38;;;2.10;;
21771;SDS011;11047;47.904;8.110;2022-09-12T01:49:11;20.30;;;1.80;;
21771;SDS011;11047;47.904;8.110;2022-09-12T01:51:43;26.13;;;1.83;;
21771;SDS011;11047;47.904;8.110;2022-09-12T01:54:18;28.80;;;1.98;;
21771;SDS011;11047;47.904;8.110;2022-09-12T01:56:50;17.48;;;1.92;;
21771;SDS011;11047;47.904;8.110;2022-09-12T01:59:21;21.92;;;2.03;;
21771;SDS011;11047;47.904;8.110;2022-09-12T02:01:52;23.90;;;1.85;;
21771;SDS011;11047;47.904;8.110;2022-09-12T02:04:26;42.95;;;2.20;;
21771;SDS011;11047;47.904;8.110;2022-09-12T02:06:56;11.65;;;1.73;;
21771;SDS011;11047;47.904;8.110;2022-09-12T02:09:27;8.68;;;1.67;;
21771;SDS011;11047;47.904;8.110;2022-09-12T02:11:59;33.42;;;2.03;;
21771;SDS011;11047;47.904;8.110;2022-09-12T02:14:30;38.03;;;2.28;;
21771;SDS011;11047;47.904;8.110;2022-09-12T02:17:04;31.50;;;2.33;;
21771;SDS011;11047;47.904;8.110;2022-09-12T02:19:35;31.60;;;2.10;;
21771;SDS011;11047;47.904;8.110;2022-09-12T02:22:06;38.20;;;2.20;;
21771;SDS011;11047;47.904;8.110;2022-09-12T02:24:41;38.28;;;2.25;;
21771;SDS011;11047;47.904;8.110;2022-09-12T02:27:13;47.25;;;2.53;;
21771;SDS011;11047;47.904;8.110;2022-09-12T02:29:41;39.55;;;1.98;;
21771;SDS011;11047;47.904;8.110;2022-09-12T02:32:11;61.30;;;2.47;;
21771;SDS011;11047;47.904;8.110;2022-09-12T02:34:47;23.65;;;1.83;;
21771;SDS011;11047;47.904;8.110;2022-09-12T02:37:22;26.95;;;1.55;;
21771;SDS011;11047;47.904;8.110;2022-09-12T02:39:58;39.38;;;1.95;;
21771;SDS011;11047;47.904;8.110;2022-09-12T02:42:25;30.13;;;1.92;;
21771;SDS011;11047;47.904;8.110;2022-09-12T02:44:53;38.25;;;1.77;;
21771;SDS011;11047;47.904;8.110;2022-09-12T02:47:24;21.13;;;2.00;;
21771;SDS011;11047;47.904;8.110;2022-09-12T02:49:56;11.02;;;1.48;;
21771;SDS011;11047;47.904;8.110;2022-09-12T02:52:24;18.50;;;1.85;;
21771;SDS011;11047;47.904;8.110;2022-09-12T02:54:52;14.35;;;1.50;;
21771;SDS011;11047;47.904;8.110;2022-09-12T02:57:20;27.48;;;1.60;;
21771;SDS011;11047;47.904;8.110;2022-09-12T02:59:47;15.13;;;1.70;;
21771;SDS011;11047;47.904;8.110;2022-09-12T03:02:21;11.38;;;1.40;;
21771;SDS011;11047;47.904;8.110;2022-09-12T03:04:58;1.63;;;1.52;;
21771;SDS011;11047;47.904;8.110;2022-09-12T03:10:58;4.20;;;1.38;;
21771;SDS011;11047;47.904;8.110;2022-09-12T03:13:46;2.40;;;1.58;;
21771;SDS011;11047;47.904;8.110;2022-09-12T03:16:23;2.45;;;1.10;;
21771;SDS011;11047;47.904;8.110;2022-09-12T03:19:07;2.53;;;1.38;;
21771;SDS011;11047;47.904;8.110;2022-09-12T03:21:40;2.08;;;1.33;;
21771;SDS011;11047;47.904;8.110;2022-09-12T03:24:19;1.60;;;1.50;;
21771;SDS011;11047;47.904;8.110;2022-09-12T03:26:53;5.35;;;1.30;;
21771;SDS011;11047;47.904;8.110;2022-09-12T03:29:23;10.70;;;1.38;;
21771;SDS011;11047;47.904;8.110;2022-09-12T03:31:54;3.33;;;1.30;;
21771;SDS011;11047;47.904;8.110;2022-09-12T03:34:24;24.42;;;1.60;;
21771;SDS011;11047;47.904;8.110;2022-09-12T03:36:53;13.90;;;1.80;;
21771;SDS011;11047;47.904;8.110;2022-09-12T03:39:21;8.43;;;1.67;;
21771;SDS011;11047;47.904;8.110;2022-09-12T03:41:50;13.23;;;1.40;;
21771;SDS011;11047;47.904;8.110;2022-09-12T03:44:18;6.43;;;1.65;;
21771;SDS011;11047;47.904;8.110;2022-09-12T03:46:48;3.33;;;1.30;;
21771;SDS011;11047;47.904;8.110;2022-09-12T03:49:15;30.48;;;2.15;;
21771;SDS011;11047;47.904;8.110;2022-09-12T03:51:44;10.02;;;1.50;;
21771;SDS011;11047;47.904;8.110;2022-09-12T03:54:11;13.75;;;1.33;;
21771;SDS011;11047;47.904;8.110;2022-09-12T03:56:41;9.18;;;1.40;;
21771;SDS011;11047;47.904;8.110;2022-09-12T03:59:19;7.80;;;1.42;;
21771;SDS011;11047;47.904;8.110;2022-09-12T04:01:46;34.03;;;1.90;;
21771;SDS011;11047;47.904;8.110;2022-09-12T04:04:13;14.27;;;1.50;;
21771;SDS011;11047;47.904;8.110;2022-09-12T04:06:40;16.50;;;1.90;;
21771;SDS011;11047;47.904;8.110;2022-09-12T04:09:12;17.17;;;1.73;;
21771;SDS011;11047;47.904;8.110;2022-09-12T04:11:39;14.52;;;1.60;;
21771;SDS011;11047;47.904;8.110;2022-09-12T04:14:06;1.40;;;1.30;;
21771;SDS011;11047;47.904;8.110;2022-09-12T04:16:33;1.27;;;1.17;;
21771;SDS011;11047;47.904;8.110;2022-09-12T04:19:00;2.03;;;1.40;;
21771;SDS011;11047;47.904;8.110;2022-09-12T04:21:28;1.92;;;1.25;;
21771;SDS011;11047;47.904;8.110;2022-09-12T04:23:55;4.72;;;1.33;;
21771;SDS011;11047;47.904;8.110;2022-09-12T04:26:23;6.28;;;1.42;;
21771;SDS011;11047;47.904;8.110;2022-09-12T04:28:52;76.97;;;2.03;;
21771;SDS011;11047;47.904;8.110;2022-09-12T04:31:21;31.80;;;2.05;;
21771;SDS011;11047;47.904;8.110;2022-09-12T04:33:52;41.67;;;2.00;;
21771;SDS011;11047;47.904;8.110;2022-09-12T04:36:19;32.28;;;1.83;;
21771;SDS011;11047;47.904;8.110;2022-09-12T04:38:48;10.82;;;1.33;;
21771;SDS011;11047;47.904;8.110;2022-09-12T04:41:15;7.07;;;1.50;;
21771;SDS011;11047;47.904;8.110;2022-09-12T04:43:46;1.30;;;1.20;;
21771;SDS011;11047;47.904;8.110;2022-09-12T04:46:17;7.18;;;1.40;;
21771;SDS011;11047;47.904;8.110;2022-09-12T04:48:46;9.00;;;1.67;;
21771;SDS011;11047;47.904;8.110;2022-09-12T04:51:14;10.80;;;1.40;;
21771;SDS011;11047;47.904;8.110;2022-09-12T04:53:47;15.77;;;1.50;;
21771;SDS011;11047;47.904;8.110;2022-09-12T04:56:15;20.42;;;1.45;;
21771;SDS011;11047;47.904;8.110;2022-09-12T04:58:42;23.92;;;1.70;;
21771;SDS011;11047;47.904;8.110;2022-09-12T05:01:15;27.30;;;1.45;;
21771;SDS011;11047;47.904;8.110;2022-09-12T05:03:48;26.40;;;1.33;;
21771;SDS011;11047;47.904;8.110;2022-09-12T05:06:18;23.02;;;1.70;;
21771;SDS011;11047;47.904;8.110;2022-09-12T05:08:46;30.05;;;1.60;;
21771;SDS011;11047;47.904;8.110;2022-09-12T05:11:14;39.50;;;1.80;;
21771;SDS011;11047;47.904;8.110;2022-09-12T05:13:48;8.93;;;1.30;;
21771;SDS011;11047;47.904;8.110;2022-09-12T05:16:19;6.13;;;1.10;;
21771;SDS011;11047;47.904;8.110;2022-09-12T05:18:47;12.43;;;1.25;;
21771;SDS011;11047;47.904;8.110;2022-09-12T05:21:15;20.25;;;1.60;;
21771;SDS011;11047;47.904;8.110;2022-09-12T05:23:43;25.38;;;1.40;;
21771;SDS011;11047;47.904;8.110;2022-09-12T05:26:12;18.45;;;1.60;;
21771;SDS011;11047;47.904;8.110;2022-09-12T05:28:40;28.58;;;1.55;;
21771;SDS011;11047;47.904;8.110;2022-09-12T05:31:09;28.02;;;1.65;;
21771;SDS011;11047;47.904;8.110;2022-09-12T05:33:41;16.23;;;1.33;;
21771;SDS011;11047;47.904;8.110;2022-09-12T05:36:10;9.50;;;1.60;;
21771;SDS011;11047;47.904;8.110;2022-09-12T05:38:38;17.10;;;1.30;;
21771;SDS011;11047;47.904;8.110;2022-09-12T05:41:06;16.45;;;1.27;;
21771;SDS011;11047;47.904;8.110;2022-09-12T05:43:34;38.17;;;1.63;;
21771;SDS011;11047;47.904;8.110;2022-09-12T05:46:02;15.10;;;1.40;;
21771;SDS011;11047;47.904;8.110;2022-09-12T05:48:35;22.85;;;1.30;;
21771;SDS011;11047;47.904;8.110;2022-09-12T05:51:08;12.25;;;1.30;;
21771;SDS011;11047;47.904;8.110;2022-09-12T05:53:36;8.82;;;1.50;;
21771;SDS011;11047;47.904;8.110;2022-09-12T05:56:05;15.30;;;1.60;;
21771;SDS011;11047;47.904;8.110;2022-09-12T05:58:34;8.25;;;1.15;;
21771;SDS011;11047;47.904;8.110;2022-09-12T06:01:06;22.60;;;1.83;;
21771;SDS011;11047;47.904;8.110;2022-09-12T06:06:07;47.80;;;2.63;;
21771;SDS011;11047;47.904;8.110;2022-09-12T06:08:43;23.45;;;2.03;;
21771;SDS011;11047;47.904;8.110;2022-09-12T06:11:12;90.43;;;4.30;;
21771;SDS011;11047;47.904;8.110;2022-09-12T06:13:40;87.97;;;3.45;;
21771;SDS011;11047;47.904;8.110;2022-09-12T06:16:08;12.15;;;2.15;;
21771;SDS011;11047;47.904;8.110;2022-09-12T06:18:37;15.00;;;2.50;;
21771;SDS011;11047;47.904;8.110;2022-09-12T06:21:06;11.63;;;2.63;;
21771;SDS011;11047;47.904;8.110;2022-09-12T06:23:37;15.68;;;2.35;;
21771;SDS011;11047;47.904;8.110;2022-09-12T06:26:06;7.50;;;2.05;;
21771;SDS011;11047;47.904;8.110;2022-09-12T06:28:38;5.30;;;1.92;;
21771;SDS011;11047;47.904;8.110;2022-09-12T06:31:07;7.47;;;1.80;;
21771;SDS011;11047;47.904;8.110;2022-09-12T06:33:37;2.28;;;1.80;;
21771;SDS011;11047;47.904;8.110;2022-09-12T06:36:05;8.27;;;2.08;;
21771;SDS011;11047;47.904;8.110;2022-09-12T06:38:36;4.90;;;1.95;;
21771;SDS011;11047;47.904;8.110;2022-09-12T06:41:03;6.03;;;1.80;;
21771;SDS011;11047;47.904;8.110;2022-09-12T06:43:32;3.58;;;1.83;;
21771;SDS011;11047;47.904;8.110;2022-09-12T06:45:59;1.50;;;1.40;;
21771;SDS011;11047;47.904;8.110;2022-09-12T06:48:27;4.10;;;1.50;;
21771;SDS011;11047;47.904;8.110;2022-09-12T06:50:55;1.70;;;1.60;;
21771;SDS011;11047;47.904;8.110;2022-09-12T06:53:27;1.50;;;1.40;;
21771;SDS011;11047;47.904;8.110;2022-09-12T06:55:57;2.38;;;1.67;;
21771;SDS011;11047;47.904;8.110;2022-09-12T06:58:26;1.60;;;1.50;;
21771;SDS011;11047;47.904;8.110;2022-09-12T07:00:59;1.60;;;1.50;;
21771;SDS011;11047;47.904;8.110;2022-09-12T07:03:27;1.80;;;1.50;;
21771;SDS011;11047;47.904;8.110;2022-09-12T07:05:54;1.77;;;1.58;;
21771;SDS011;11047;47.904;8.110;2022-09-12T07:08:21;1.42;;;1.33;;
21771;SDS011;11047;47.904;8.110;2022-09-12T07:10:50;1.27;;;1.17;;
21771;SDS011;11047;47.904;8.110;2022-09-12T07:13:17;1.60;;;1.50;;
21771;SDS011;11047;47.904;8.110;2022-09-12T07:15:44;2.15;;;1.30;;
21771;SDS011;11047;47.904;8.110;2022-09-12T07:18:12;5.20;;;1.50;;
21771;SDS011;11047;47.904;8.110;2022-09-12T07:20:41;1.52;;;1.42;;
21771;SDS011;11047;47.904;8.110;2022-09-12T07:23:08;1.25;;;1.15;;
21771;SDS011;11047;47.904;8.110;2022-09-12T07:25:35;2.05;;;1.77;;
21771;SDS011;11047;47.904;8.110;2022-09-12T07:28:09;1.95;;;1.85;;
21771;SDS011;11047;47.904;8.110;2022-09-12T07:30:36;2.25;;;2.05;;
21771;SDS011;11047;47.904;8.110;2022-09-12T07:33:03;2.60;;;2.40;;
21771;SDS011;11047;47.904;8.110;2022-09-12T07:35:31;2.53;;;2.03;;
21771;SDS011;11047;47.904;8.110;2022-09-12T07:38:00;2.33;;;2.08;;
21771;SDS011;11047;47.904;8.110;2022-09-12T07:40:28;3.05;;;2.03;;
21771;SDS011;11047;47.904;8.110;2022-09-12T07:42:55;2.10;;;1.90;;
21771;SDS011;11047;47.904;8.110;2022-09-12T07:45:23;2.40;;;2.20;;
21771;SDS011;11047;47.904;8.110;2022-09-12T07:47:52;2.50;;;2.30;;
21771;SDS011;11047;47.904;8.110;2022-09-12T07:50:19;3.40;;;2.20;;
21771;SDS011;11047;47.904;8.110;2022-09-12T07:52:48;2.55;;;2.10;;
21771;SDS011;11047;47.904;8.110;2022-09-12T07:55:19;2.20;;;1.95;;
21771;SDS011;11047;47.904;8.110;2022-09-12T07:57:52;2.20;;;2.00;;
21771;SDS011;11047;47.904;8.110;2022-09-12T08:00:19;3.45;;;2.13;;
21771;SDS011;11047;47.904;8.110;2022-09-12T08:02:50;2.63;;;1.60;;
21771;SDS011;11047;47.904;8.110;2022-09-12T08:05:18;4.78;;;1.67;;
21771;SDS011;11047;47.904;8.110;2022-09-12T08:07:45;2.28;;;1.60;;
21771;SDS011;11047;47.904;8.110;2022-09-12T08:10:13;1.67;;;1.13;;
21771;SDS011;11047;47.904;8.110;2022-09-12T08:12:41;1.27;;;1.00;;
21771;SDS011;11047;47.904;8.110;2022-09-12T08:15:17;1.08;;;0.98;;
21771;SDS011;11047;47.904;8.110;2022-09-12T08:17:51;1.30;;;0.95;;
21771;SDS011;11047;47.904;8.110;2022-09-12T08:20:18;0.70;;;0.70;;
21771;SDS011;11047;47.904;8.110;2022-09-12T08:22:45;0.80;;;0.80;;
21771;SDS011;11047;47.904;8.110;2022-09-12T08:25:12;0.60;;;0.60;;
21771;SDS011;11047;47.904;8.110;2022-09-12T08:27:41;0.80;;;0.80;;
21771;SDS011;11047;47.904;8.110;2022-09-12T08:30:12;1.30;;;0.80;;
21771;SDS011;11047;47.904;8.110;2022-09-12T08:32:41;0.85;;;0.63;;
21771;SDS011;11047;47.904;8.110;2022-09-12T08:35:16;0.70;;;0.70;;
21771;SDS011;11047;47.904;8.110;2022-09-12T08:37:43;1.17;;;0.80;;
21771;SDS011;11047;47.904;8.110;2022-09-12T08:40:13;0.90;;;0.80;;
21771;SDS011;11047;47.904;8.110;2022-09-12T08:42:45;2.08;;;0.80;;
21771;SDS011;11047;47.904;8.110;2022-09-12T08:45:27;1.42;;;0.75;;
21771;SDS011;11047;47.904;8.110;2022-09-12T08:48:05;1.38;;;0.77;;
21771;SDS011;11047;47.904;8.110;2022-09-12T08:50:52;0.80;;;0.80;;
21771;SDS011;11047;47.904;8.110;2022-09-12T08:53:20;0.73;;;0.70;;
21771;SDS011;11047;47.904;8.110;2022-09-12T08:55:51;0.75;;;0.75;;
21771;SDS011;11047;47.904;8.110;2022-09-12T08:58:23;1.48;;;0.65;;
21771;SDS011;11047;47.904;8.110;2022-09-12T09:00:54;0.65;;;0.60;;
21771;SDS011;11047;47.904;8.110;2022-09-12T09:03:42;0.95;;;0.70;;
21771;SDS011;11047;47.904;8.110;2022-09-12T09:06:29;1.10;;;0.60;;
21771;SDS011;11047;47.904;8.110;2022-09-12T09:09:10;1.08;;;0.70;;
21771;SDS011;11047;47.904;8.110;2022-09-12T09:11:49;1.48;;;0.60;;
21771;SDS011;11047;47.904;8.110;2022-09-12T09:18:21;0.60;;;0.55;;
21771;SDS011;11047;47.904;8.110;2022-09-12T09:25:01;1.40;;;0.52;;
21771;SDS011;11047;47.904;8.110;2022-09-12T09:38:44;0.68;;;0.50;;
21771;SDS011;11047;47.904;8.110;2022-09-12T10:05:28;1.05;;;0.40;;
21771;SDS011;11047;47.904;8.110;2022-09-12T10:08:23;0.40;;;0.40;;
21771;SDS011;11047;47.904;8.110;2022-09-12T10:11:27;1.67;;;0.60;;
21771;SDS011;11047;47.904;8.110;2022-09-12T10:14:03;0.40;;;0.40;;
21771;SDS011;11047;47.904;8.110;2022-09-12T10:23:57;0.60;;;0.43;;
21771;SDS011;11047;47.904;8.110;2022-09-12T10:26:51;0.60;;;0.50;;
21771;SDS011;11047;47.904;8.110;2022-09-12T10:32:36;1.10;;;0.50;;
21771;SDS011;11047;47.904;8.110;2022-09-12T10:35:23;1.10;;;0.73;;
21771;SDS011;11047;47.904;8.110;2022-09-12T10:38:23;2.45;;;0.40;;
21771;SDS011;11047;47.904;8.110;2022-09-12T10:41:07;0.40;;;0.40;;
21771;SDS011;11047;47.904;8.110;2022-09-12T10:47:36;1.02;;;0.55;;
21771;SDS011;11047;47.904;8.110;2022-09-12T10:53:38;0.68;;;0.60;;
21771;SDS011;11047;47.904;8.110;2022-09-12T10:59:54;1.20;;;0.40;;
21771;SDS011;11047;47.904;8.110;2022-09-12T11:13:00;0.50;;;0.45;;
21771;SDS011;11047;47.904;8.110;2022-09-12T11:19:49;0.47;;;0.40;;
21771;SDS011;11047;47.904;8.110;2022-09-12T11:23:53;5.93;;;0.57;;
21771;SDS011;11047;47.904;8.110;2022-09-12T11:29:50;3.20;;;0.50;;
21771;SDS011;11047;47.904;8.110;2022-09-12T11:35:58;2.65;;;0.45;;
21771;SDS011;11047;47.904;8.110;2022-09-12T11:38:53;0.60;;;0.43;;
21771;SDS011;11047;47.904;8.110;2022-09-12T11:45:38;1.10;;;0.40;;
21771;SDS011;11047;47.904;8.110;2022-09-12T11:51:56;1.85;;;0.40;;
21771;SDS011;11047;47.904;8.110;2022-09-12T11:55:24;0.47;;;0.43;;
21771;SDS011;11047;47.904;8.110;2022-09-12T11:58:19;0.52;;;0.40;;
21771;SDS011;11047;47.904;8.110;2022-09-12T12:01:11;2.70;;;0.70;;
21771;SDS011;11047;47.904;8.110;2022-09-12T12:06:54;1.73;;;0.73;;
21771;SDS011;11047;47.904;8.110;2022-09-12T12:10:19;0.60;;;0.60;;
21771;SDS011;11047;47.904;8.110;2022-09-12T12:13:36;0.50;;;0.43;;
21771;SDS011;11047;47.904;8.110;2022-09-12T12:16:30;0.60;;;0.60;;
21771;SDS011;11047;47.904;8.110;2022-09-12T12:19:33;1.58;;;0.50;;
21771;SDS011;11047;47.904;8.110;2022-09-12T12:22:13;2.38;;;0.65;;
21771;SDS011;11047;47.904;8.110;2022-09-12T12:24:58;0.95;;;0.77;;
21771;SDS011;11047;47.904;8.110;2022-09-12T12:27:57;0.60;;;0.60;;
21771;SDS011;11047;47.904;8.110;2022-09-12T12:33:59;1.23;;;0.57;;
21771;SDS011;11047;47.904;8.110;2022-09-12T12:36:45;2.42;;;0.70;;
21771;SDS011;11047;47.904;8.110;2022-09-12T12:46:02;0.88;;;0.63;;
21771;SDS011;11047;47.904;8.110;2022-09-12T12:49:04;1.55;;;0.60;;
21771;SDS011;11047;47.904;8.110;2022-09-12T12:55:19;0.70;;;0.50;;
21771;SDS011;11047;47.904;8.110;2022-09-12T12:58:21;0.70;;;0.60;;
21771;SDS011;11047;47.904;8.110;2022-09-12T13:04:16;1.45;;;0.57;;
21771;SDS011;11047;47.904;8.110;2022-09-12T13:07:01;2.85;;;0.70;;
21771;SDS011;11047;47.904;8.110;2022-09-12T13:09:43;1.50;;;0.57;;
21771;SDS011;11047;47.904;8.110;2022-09-12T13:12:47;1.15;;;0.60;;
21771;SDS011;11047;47.904;8.110;2022-09-12T13:15:47;2.53;;;0.60;;
21771;SDS011;11047;47.904;8.110;2022-09-12T13:23:35;1.25;;;0.50;;
21771;SDS011;11047;47.904;8.110;2022-09-12T13:26:09;0.77;;;0.60;;
21771;SDS011;11047;47.904;8.110;2022-09-12T13:28:37;0.95;;;0.50;;
21771;SDS011;11047;47.904;8.110;2022-09-12T13:31:07;2.20;;;0.70;;
21771;SDS011;11047;47.904;8.110;2022-09-12T13:33:44;1.10;;;0.50;;
21771;SDS011;11047;47.904;8.110;2022-09-12T13:39:14;1.00;;;0.82;;
21771;SDS011;11047;47.904;8.110;2022-09-12T13:41:49;0.43;;;0.40;;
21771;SDS011;11047;47.904;8.110;2022-09-12T13:44:36;1.52;;;0.95;;
21771;SDS011;11047;47.904;8.110;2022-09-12T13:47:09;2.03;;;0.80;;
21771;SDS011;11047;47.904;8.110;2022-09-12T13:49:41;1.35;;;0.85;;
21771;SDS011;11047;47.904;8.110;2022-09-12T13:52:13;2.13;;;0.80;;
21771;SDS011;11047;47.904;8.110;2022-09-12T13:54:44;0.80;;;0.80;;
21771;SDS011;11047;47.904;8.110;2022-09-12T13:57:29;0.98;;;0.88;;
21771;SDS011;11047;47.904;8.110;2022-09-12T13:59:58;2.00;;;1.02;;
21771;SDS011;11047;47.904;8.110;2022-09-12T14:02:26;0.93;;;0.70;;
21771;SDS011;11047;47.904;8.110;2022-09-12T14:04:55;1.23;;;0.82;;
21771;SDS011;11047;47.904;8.110;2022-09-12T14:07:36;4.13;;;0.60;;
21771;SDS011;11047;47.904;8.110;2022-09-12T14:10:16;0.88;;;0.73;;
21771;SDS011;11047;47.904;8.110;2022-09-12T14:12:50;2.50;;;0.90;;
21771;SDS011;11047;47.904;8.110;2022-09-12T14:15:18;1.00;;;0.70;;
21771;SDS011;11047;47.904;8.110;2022-09-12T14:17:49;2.90;;;1.23;;
21771;SDS011;11047;47.904;8.110;2022-09-12T14:20:19;1.30;;;0.80;;
21771;SDS011;11047;47.904;8.110;2022-09-12T14:22:47;1.52;;;1.10;;
21771;SDS011;11047;47.904;8.110;2022-09-12T14:25:16;1.20;;;1.08;;
21771;SDS011;11047;47.904;8.110;2022-09-12T14:27:45;1.20;;;1.10;;
21771;SDS011;11047;47.904;8.110;2022-09-12T14:30:20;1.33;;;0.70;;
21771;SDS011;11047;47.904;8.110;2022-09-12T14:35:42;0.88;;;0.82;;
21771;SDS011;11047;47.904;8.110;2022-09-12T14:38:12;1.05;;;0.80;;
21771;SDS011;11047;47.904;8.110;2022-09-12T14:40:47;1.00;;;0.70;;
21771;SDS011;11047;47.904;8.110;2022-09-12T14:43:17;0.73;;;0.73;;
21771;SDS011;11047;47.904;8.110;2022-09-12T14:45:53;1.70;;;0.95;;
21771;SDS011;11047;47.904;8.110;2022-09-12T14:48:23;2.30;;;0.77;;
21771;SDS011;11047;47.904;8.110;2022-09-12T14:50:51;2.47;;;1.05;;
21771;SDS011;11047;47.904;8.110;2022-09-12T14:53:20;2.05;;;0.90;;
21771;SDS011;11047;47.904;8.110;2022-09-12T14:55:50;2.60;;;0.75;;
21771;SDS011;11047;47.904;8.110;2022-09-12T14:58:23;3.70;;;0.90;;
21771;SDS011;11047;47.904;8.110;2022-09-12T15:00:55;1.95;;;0.80;;
21771;SDS011;11047;47.904;8.110;2022-09-12T15:03:30;1.40;;;1.05;;
21771;SDS011;11047;47.904;8.110;2022-09-12T15:09:11;1.92;;;1.08;;
21771;SDS011;11047;47.904;8.110;2022-09-12T15:11:40;1.83;;;1.10;;
21771;SDS011;11047;47.904;8.110;2022-09-12T15:14:30;4.35;;;1.40;;
21771;SDS011;11047;47.904;8.110;2022-09-12T15:20:47;4.18;;;1.23;;
21771;SDS011;11047;47.904;8.110;2022-09-12T15:23:42;1.17;;;1.02;;
21771;SDS011;11047;47.904;8.110;2022-09-12T15:26:32;2.05;;;1.35;;
21771;SDS011;11047;47.904;8.110;2022-09-12T15:29:15;1.20;;;1.10;;
21771;SDS011;11047;47.904;8.110;2022-09-12T15:32:03;2.80;;;1.98;;
21771;SDS011;11047;47.904;8.110;2022-09-12T15:35:02;3.38;;;1.40;;
21771;SDS011;11047;47.904;8.110;2022-09-12T15:37:42;2.67;;;1.23;;
21771;SDS011;11047;47.904;8.110;2022-09-12T15:43:45;1.30;;;1.20;;
21771;SDS011;11047;47.904;8.110;2022-09-12T15:46:53;4.15;;;1.30;;
21771;SDS011;11047;47.904;8.110;2022-09-12T15:58:40;2.22;;;1.60;;
21771;SDS011;11047;47.904;8.110;2022-09-12T16:02:15;2.38;;;1.60;;
21771;SDS011;11047;47.904;8.110;2022-09-12T16:08:57;2.55;;;1.80;;
21771;SDS011;11047;47.904;8.110;2022-09-12T16:12:08;2.67;;;1.67;;
21771;SDS011;11047;47.904;8.110;2022-09-12T16:21:55;1.75;;;1.65;;
21771;SDS011;11047;47.904;8.110;2022-09-12T16:44:38;2.15;;;1.65;;
21771;SDS011;11047;47.904;8.110;2022-09-12T16:50:28;3.25;;;1.73;;
21771;SDS011;11047;47.904;8.110;2022-09-12T16:53:35;3.05;;;1.45;;
21771;SDS011;11047;47.904;8.110;2022-09-12T16:56:36;3.45;;;1.95;;
21771;SDS011;11047;47.904;8.110;2022-09-12T17:02:37;3.90;;;1.90;;
21771;SDS011;11047;47.904;8.110;2022-09-12T17:11:51;2.20;;;1.90;;
21771;SDS011;11047;47.904;8.110;2022-09-12T17:14:58;2.40;;;1.70;;
21771;SDS011;11047;47.904;8.110;2022-09-12T17:18:14;3.00;;;1.88;;
21771;SDS011;11047;47.904;8.110;2022-09-12T17:24:20;6.70;;;1.48;;
21771;SDS011;11047;47.904;8.110;2022-09-12T17:27:06;5.63;;;2.38;;
21771;SDS011;11047;47.904;8.110;2022-09-12T17:30:05;3.78;;;1.90;;
21771;SDS011;11047;47.904;8.110;2022-09-12T17:33:13;4.78;;;1.88;;
21771;SDS011;11047;47.904;8.110;2022-09-12T17:44:41;1.67;;;1.20;;
21771;SDS011;11047;47.904;8.110;2022-09-12T17:47:23;8.02;;;1.83;;
21771;SDS011;11047;47.904;8.110;2022-09-12T17:49:57;4.40;;;1.67;;
21771;SDS011;11047;47.904;8.110;2022-09-12T17:52:26;2.95;;;1.30;;
21771;SDS011;11047;47.904;8.110;2022-09-12T17:54:55;7.13;;;1.90;;
21771;SDS011;11047;47.904;8.110;2022-09-12T17:57:22;4.57;;;3.03;;
21771;SDS011;11047;47.904;8.110;2022-09-12T17:59:53;6.70;;;2.75;;
21771;SDS011;11047;47.904;8.110;2022-09-12T18:02:28;5.35;;;3.45;;
21771;SDS011;11047;47.904;8.110;2022-09-12T18:05:04;6.47;;;2.83;;
21771;SDS011;11047;47.904;8.110;2022-09-12T18:11:03;5.28;;;3.05;;
21771;SDS011;11047;47.904;8.110;2022-09-12T18:13:31;7.63;;;2.35;;
21771;SDS011;11047;47.904;8.110;2022-09-12T18:16:08;3.63;;;2.15;;
21771;SDS011;11047;47.904;8.110;2022-09-12T18:19:12;4.82;;;2.22;;
21771;SDS011;11047;47.904;8.110;2022-09-12T18:21:58;4.50;;;1.77;;
21771;SDS011;11047;47.904;8.110;2022-09-12T18:24:31;5.18;;;1.95;;
21771;SDS011;11047;47.904;8.110;2022-09-12T18:27:06;3.08;;;1.73;;
21771;SDS011;11047;47.904;8.110;2022-09-12T18:29:38;2.65;;;1.85;;
21771;SDS011;11047;47.904;8.110;2022-09-12T18:32:07;3.22;;;1.40;;
21771;SDS011;11047;47.904;8.110;2022-09-12T18:34:41;5.53;;;1.42;;
21771;SDS011;11047;47.904;8.110;2022-09-12T18:39:38;3.83;;;1.30;;
21771;SDS011;11047;47.904;8.110;2022-09-12T18:42:10;4.80;;;1.45;;
21771;SDS011;11047;47.904;8.110;2022-09-12T18:44:37;3.78;;;1.75;;
21771;SDS011;11047;47.904;8.110;2022-09-12T18:47:05;4.30;;;1.60;;
21771;SDS011;11047;47.904;8.110;2022-09-12T18:49:49;3.38;;;1.48;;
21771;SDS011;11047;47.904;8.110;2022-09-12T18:52:19;5.28;;;1.98;;
21771;SDS011;11047;47.904;8.110;2022-09-12T18:55:05;5.03;;;1.70;;
21771;SDS011;11047;47.904;8.110;2022-09-12T19:03:23;4.05;;;1.60;;
21771;SDS011;11047;47.904;8.110;2022-09-12T19:05:58;4.32;;;1.77;;
21771;SDS011;11047;47.904;8.110;2022-09-12T19:35:16;7.38;;;1.70;;
21771;SDS011;11047;47.904;8.110;2022-09-12T19:37:43;5.82;;;1.10;;
21771;SDS011;11047;47.904;8.110;2022-09-12T19:40:10;2.05;;;1.30;;